Time;durP1;ratioP1;P1;durP2;ratioP2;P2;SDS_P1;SDS_P2;PMS_P1;PMS_P2;Temp;Humidity;BMP_temperature;BMP_pressure;BME280_temperature;BME280_humidity;BME280_pressure;Samples;Min_cycle;Max_cycle;Signal;HPM_P1;HPM_P2
2021/05/28 00:01:26;;;;;;;2.43;2.03;;;9.60;99.90;;;;;;5010661;28;20230;-86
2021/05/28 00:03:52;;;;;;;2.03;1.83;;;9.60;99.90;;;;;;5016649;28;20250;-86
2021/05/28 00:06:17;;;;;;;2.70;1.93;;;9.50;99.90;;;;;;5007306;28;20322;-85
2021/05/28 00:08:43;;;;;;;4.73;2.17;;;9.50;99.90;;;;;;5007352;28;20183;-86
2021/05/28 00:11:09;;;;;;;3.37;2.47;;;9.50;99.90;;;;;;5031920;28;20198;-85
2021/05/28 00:13:36;;;;;;;3.83;1.93;;;9.50;99.90;;;;;;5022740;28;20223;-86
2021/05/28 00:16:02;;;;;;;3.23;2.00;;;9.50;99.90;;;;;;5014412;28;20223;-85
2021/05/28 00:18:28;;;;;;;2.57;2.23;;;9.50;99.90;;;;;;5011820;28;20210;-86
2021/05/28 00:20:54;;;;;;;2.37;1.57;;;9.50;99.90;;;;;;5028810;28;20245;-85
2021/05/28 00:23:20;;;;;;;2.57;1.20;;;9.50;99.90;;;;;;5030259;28;20198;-85
2021/05/28 00:25:46;;;;;;;5.60;2.27;;;9.50;99.90;;;;;;5009592;28;20361;-85
2021/05/28 00:28:11;;;;;;;2.33;1.53;;;9.50;99.90;;;;;;5034420;28;20214;-85
2021/05/28 00:30:37;;;;;;;4.60;1.83;;;9.50;99.90;;;;;;5041889;28;21297;-85
2021/05/28 00:33:04;;;;;;;4.37;2.30;;;9.50;99.90;;;;;;5033282;28;20218;-84
2021/05/28 00:35:30;;;;;;;10.53;3.63;;;9.50;99.90;;;;;;5032516;28;20277;-84
2021/05/28 00:37:56;;;;;;;3.77;1.50;;;9.40;99.90;;;;;;5003093;28;20274;-85
2021/05/28 00:40:22;;;;;;;10.70;2.70;;;9.40;99.90;;;;;;5022639;28;20223;-85
2021/05/28 00:42:47;;;;;;;1.57;1.47;;;9.30;99.90;;;;;;5002404;28;20231;-86
2021/05/28 00:45:14;;;;;;;2.90;2.50;;;9.30;99.90;;;;;;5014319;28;20207;-86
2021/05/28 00:47:40;;;;;;;3.50;2.67;;;9.30;99.90;;;;;;5012450;28;20187;-86
2021/05/28 00:50:06;;;;;;;2.27;1.80;;;9.30;99.90;;;;;;5017323;28;20190;-85
2021/05/28 00:52:33;;;;;;;2.73;1.83;;;9.30;99.90;;;;;;5014077;28;20219;-84
2021/05/28 00:55:00;;;;;;;4.67;2.13;;;9.40;99.90;;;;;;5024554;28;20218;-86
2021/05/28 00:57:28;;;;;;;2.83;2.67;;;9.50;99.90;;;;;;5022714;28;20309;-86
2021/05/28 00:59:57;;;;;;;2.00;1.50;;;9.50;99.90;;;;;;5002445;28;20188;-86
2021/05/28 01:02:24;;;;;;;4.60;2.40;;;9.50;99.90;;;;;;5034469;28;20225;-86
2021/05/28 01:04:50;;;;;;;4.30;2.50;;;9.60;99.90;;;;;;5025282;28;20278;-85
2021/05/28 01:07:16;;;;;;;5.37;2.40;;;9.60;99.90;;;;;;5017482;28;20744;-83
2021/05/28 01:09:42;;;;;;;7.50;2.30;;;9.70;99.90;;;;;;5012947;28;20212;-85
2021/05/28 01:12:08;;;;;;;4.73;2.43;;;9.70;99.90;;;;;;5000539;28;20266;-84
2021/05/28 01:14:34;;;;;;;3.27;2.00;;;9.60;99.90;;;;;;5011519;28;20207;-85
2021/05/28 01:16:59;;;;;;;4.43;1.83;;;9.60;99.90;;;;;;4994836;28;20223;-85
2021/05/28 01:19:25;;;;;;;2.77;1.97;;;9.50;99.90;;;;;;5026252;28;20262;-85
2021/05/28 01:21:53;;;;;;;1.90;1.70;;;9.50;99.90;;;;;;5018362;28;20317;-85
2021/05/28 01:24:19;;;;;;;3.80;2.43;;;9.60;99.90;;;;;;5012563;28;20226;-85
2021/05/28 01:26:45;;;;;;;3.53;3.07;;;9.60;99.90;;;;;;5030025;28;20209;-85
2021/05/28 01:29:11;;;;;;;6.90;4.23;;;9.60;99.90;;;;;;4997190;28;20282;-85
2021/05/28 01:31:37;;;;;;;2.17;1.93;;;9.70;99.90;;;;;;4994719;28;20602;-84
2021/05/28 01:34:03;;;;;;;9.67;2.57;;;9.60;99.90;;;;;;5027750;28;20277;-86
2021/05/28 01:36:29;;;;;;;3.50;2.13;;;9.60;99.90;;;;;;5003066;28;20231;-85
2021/05/28 01:38:55;;;;;;;10.83;3.43;;;9.60;99.90;;;;;;5001681;28;20653;-85
2021/05/28 01:41:21;;;;;;;2.10;1.83;;;9.50;99.90;;;;;;5001738;28;20804;-85
2021/05/28 01:43:46;;;;;;;6.53;3.03;;;9.50;99.90;;;;;;5011734;28;20360;-85
2021/05/28 01:46:12;;;;;;;3.30;1.77;;;9.50;99.90;;;;;;4994877;28;20338;-87
2021/05/28 01:48:41;;;;;;;4.67;2.90;;;9.50;99.90;;;;;;5015104;28;20222;-85
2021/05/28 01:51:07;;;;;;;4.83;3.13;;;9.50;99.90;;;;;;5016445;28;20227;-86
2021/05/28 01:53:33;;;;;;;5.80;2.70;;;9.50;99.90;;;;;;4993216;28;20880;-86
2021/05/28 01:55:59;;;;;;;3.97;2.80;;;9.50;99.90;;;;;;5014180;28;20264;-86
2021/05/28 01:58:26;;;;;;;3.37;2.97;;;9.40;99.90;;;;;;5016773;28;20219;-86
2021/05/28 02:00:56;;;;;;;10.97;2.50;;;9.40;99.90;;;;;;5019309;28;20232;-86
2021/05/28 02:03:25;;;;;;;2.73;1.73;;;9.40;99.90;;;;;;5021907;28;20227;-85
2021/05/28 02:05:51;;;;;;;3.60;1.80;;;9.40;99.90;;;;;;4998323;28;20188;-86
2021/05/28 02:08:17;;;;;;;4.17;1.93;;;9.40;99.90;;;;;;5014373;28;20210;-86
2021/05/28 02:10:44;;;;;;;1.50;1.40;;;9.30;99.90;;;;;;5003290;28;20704;-85
2021/05/28 02:13:10;;;;;;;2.07;1.63;;;9.30;99.90;;;;;;5004265;28;20216;-86
2021/05/28 02:15:36;;;;;;;10.80;1.90;;;9.40;99.90;;;;;;5016273;28;20223;-86
2021/05/28 02:18:04;;;;;;;2.70;2.50;;;9.30;99.90;;;;;;5016968;28;20241;-85
2021/05/28 02:20:30;;;;;;;4.57;2.77;;;9.20;99.90;;;;;;4994662;28;20236;-86
2021/05/28 02:22:55;;;;;;;2.37;2.17;;;9.30;99.90;;;;;;5014470;28;20266;-83
2021/05/28 02:25:21;;;;;;;2.40;2.20;;;9.20;99.90;;;;;;4978168;28;20277;-83
2021/05/28 02:27:47;;;;;;;4.83;2.87;;;9.00;99.90;;;;;;5009109;28;20752;-85
2021/05/28 02:30:14;;;;;;;3.47;2.37;;;9.00;99.90;;;;;;5009520;28;20215;-86
2021/05/28 02:32:41;;;;;;;10.30;3.13;;;9.00;99.90;;;;;;4999452;28;20196;-84
2021/05/28 02:35:09;;;;;;;3.13;2.43;;;9.00;99.90;;;;;;5028501;28;20198;-85
2021/05/28 02:37:35;;;;;;;5.97;2.77;;;8.80;99.90;;;;;;5013352;28;20218;-86
2021/05/28 02:40:03;;;;;;;6.50;2.80;;;8.80;99.90;;;;;;5009706;28;20302;-85
2021/05/28 02:42:29;;;;;;;2.80;2.27;;;8.70;99.90;;;;;;5028537;28;20231;-84
2021/05/28 02:44:55;;;;;;;3.53;2.70;;;8.70;99.90;;;;;;5026527;28;20263;-84
2021/05/28 02:47:21;;;;;;;3.07;2.63;;;8.70;99.90;;;;;;5028841;28;20914;-86
2021/05/28 02:49:48;;;;;;;3.20;2.67;;;8.70;99.90;;;;;;5007025;28;21275;-84
2021/05/28 02:52:14;;;;;;;4.97;2.37;;;8.60;99.90;;;;;;4987707;28;20255;-85
2021/05/28 02:54:41;;;;;;;4.27;2.20;;;8.50;99.90;;;;;;4999570;28;20230;-85
2021/05/28 02:57:07;;;;;;;3.27;2.03;;;8.40;99.90;;;;;;5004015;28;20219;-86
2021/05/28 02:59:33;;;;;;;6.83;3.17;;;8.30;99.90;;;;;;4993177;28;20198;-85
2021/05/28 03:01:58;;;;;;;3.17;2.83;;;8.30;99.90;;;;;;5026090;28;20238;-86
2021/05/28 03:04:24;;;;;;;3.17;2.30;;;8.30;99.90;;;;;;5023758;28;20314;-84
2021/05/28 03:06:50;;;;;;;6.43;4.03;;;8.20;99.90;;;;;;5013654;28;20219;-85
2021/05/28 03:09:16;;;;;;;3.80;3.40;;;8.30;99.90;;;;;;4994138;28;20692;-85
2021/05/28 03:11:42;;;;;;;4.43;3.87;;;8.30;99.90;;;;;;5008726;28;20195;-86
2021/05/28 03:14:07;;;;;;;7.43;2.87;;;8.30;99.90;;;;;;5011370;28;20184;-83
2021/05/28 03:16:33;;;;;;;5.13;3.33;;;8.30;99.90;;;;;;5012346;28;20261;-85
2021/05/28 03:19:03;;;;;;;2.70;2.50;;;8.30;99.90;;;;;;4999516;28;21205;-86
2021/05/28 03:24:00;;;;;;;4.73;3.20;;;8.30;99.90;;;;;;4991108;28;20226;-84
2021/05/28 03:26:27;;;;;;;4.87;3.63;;;8.20;99.90;;;;;;5004137;28;20198;-84
2021/05/28 03:28:55;;;;;;;4.90;3.73;;;8.20;99.90;;;;;;4984913;28;20220;-86
2021/05/28 03:31:22;;;;;;;9.97;4.07;;;8.30;99.90;;;;;;4999040;28;20243;-86
2021/05/28 03:33:48;;;;;;;3.57;3.20;;;8.30;99.90;;;;;;5000737;28;20219;-86
2021/05/28 03:36:15;;;;;;;3.27;3.00;;;8.30;99.90;;;;;;5024359;28;20221;-85
2021/05/28 03:38:41;;;;;;;4.10;3.10;;;8.30;99.90;;;;;;5011443;28;20183;-86
2021/05/28 03:41:07;;;;;;;7.30;4.10;;;8.40;99.90;;;;;;5011535;28;20304;-84
2021/05/28 03:43:34;;;;;;;3.67;3.13;;;8.30;99.90;;;;;;5019921;28;20301;-84
2021/05/28 03:46:01;;;;;;;6.87;3.67;;;8.30;99.90;;;;;;5027011;28;20237;-84
2021/05/28 03:48:26;;;;;;;10.30;3.10;;;8.30;99.90;;;;;;5027172;28;20335;-85
2021/05/28 03:50:53;;;;;;;3.77;2.60;;;8.30;99.90;;;;;;5017988;28;20655;-86
2021/05/28 03:53:18;;;;;;;6.70;3.10;;;8.30;99.90;;;;;;5012511;28;20186;-86
2021/05/28 03:55:44;;;;;;;2.93;2.33;;;8.30;99.90;;;;;;5008398;28;21080;-84
2021/05/28 03:58:10;;;;;;;4.10;2.60;;;8.30;99.90;;;;;;5013100;28;21187;-86
2021/05/28 04:00:36;;;;;;;9.23;3.93;;;8.40;99.90;;;;;;5023466;28;21141;-85
2021/05/28 04:03:02;;;;;;;5.83;3.27;;;8.40;99.90;;;;;;5007324;28;20219;-86
2021/05/28 04:05:28;;;;;;;8.03;3.57;;;8.40;99.90;;;;;;4992292;28;20180;-86
2021/05/28 04:07:53;;;;;;;4.67;3.60;;;8.40;99.90;;;;;;5026801;28;20230;-86
2021/05/28 04:10:19;;;;;;;4.37;3.77;;;8.50;99.90;;;;;;5023610;28;20269;-85
2021/05/28 04:12:45;;;;;;;4.23;2.77;;;8.50;99.90;;;;;;5012462;28;20231;-84
2021/05/28 04:15:12;;;;;;;3.33;2.90;;;8.50;99.90;;;;;;5025266;28;20220;-86
2021/05/28 04:17:37;;;;;;;5.87;3.97;;;8.50;99.90;;;;;;4997172;28;20190;-85
2021/05/28 04:20:04;;;;;;;4.27;3.30;;;8.50;99.90;;;;;;5016950;28;20191;-86
2021/05/28 04:22:30;;;;;;;7.37;4.43;;;8.60;99.90;;;;;;5029989;28;20261;-86
2021/05/28 04:24:56;;;;;;;3.93;3.23;;;8.60;99.90;;;;;;5013580;28;20223;-87
2021/05/28 04:27:22;;;;;;;3.47;3.03;;;8.70;99.90;;;;;;5000944;28;20272;-87
2021/05/28 04:29:48;;;;;;;4.50;2.23;;;8.70;99.90;;;;;;5029275;28;20187;-86
2021/05/28 04:32:14;;;;;;;4.20;2.10;;;8.80;99.90;;;;;;5019614;28;20275;-86
2021/05/28 04:34:39;;;;;;;3.73;2.83;;;8.90;99.90;;;;;;4994944;28;20562;-89
2021/05/28 04:37:05;;;;;;;3.13;2.83;;;9.00;99.90;;;;;;5020300;28;20888;-86
2021/05/28 04:39:31;;;;;;;4.50;2.93;;;9.00;99.90;;;;;;4986792;28;20223;-87
2021/05/28 04:41:57;;;;;;;4.63;3.60;;;9.10;99.90;;;;;;4992722;28;20239;-87
2021/05/28 04:44:23;;;;;;;4.60;3.17;;;9.20;99.90;;;;;;5017907;28;20209;-88
2021/05/28 04:46:49;;;;;;;5.27;2.00;;;9.30;99.90;;;;;;5031887;28;20223;-88
2021/05/28 04:49:15;;;;;;;11.80;3.33;;;9.30;99.90;;;;;;5027938;28;20236;-88
2021/05/28 04:51:41;;;;;;;4.87;2.87;;;9.30;99.90;;;;;;5001166;28;20649;-87
2021/05/28 04:54:07;;;;;;;6.87;3.50;;;9.40;99.90;;;;;;5006922;28;20591;-88
2021/05/28 04:56:33;;;;;;;5.17;3.30;;;9.50;99.90;;;;;;4978688;28;20183;-91
2021/05/28 04:58:59;;;;;;;4.03;3.63;;;9.60;99.90;;;;;;5009736;28;20317;-87
2021/05/28 05:01:25;;;;;;;7.10;3.70;;;9.70;99.90;;;;;;5025749;28;20729;-89
2021/05/28 05:03:51;;;;;;;5.30;3.27;;;9.70;99.90;;;;;;5015032;28;20650;-87
2021/05/28 05:06:17;;;;;;;5.13;3.70;;;9.80;99.90;;;;;;5009295;28;20223;-88
2021/05/28 05:08:42;;;;;;;3.77;2.83;;;9.80;99.90;;;;;;5009381;28;20221;-87
2021/05/28 05:11:08;;;;;;;3.73;3.03;;;9.80;99.90;;;;;;5019024;28;20273;-87
2021/05/28 05:13:34;;;;;;;4.53;3.23;;;10.00;99.90;;;;;;5010608;28;20211;-87
2021/05/28 05:16:00;;;;;;;6.93;3.23;;;10.10;99.90;;;;;;5003315;28;20246;-89
2021/05/28 05:18:26;;;;;;;5.70;3.03;;;10.20;99.90;;;;;;5004537;28;20223;-87
2021/05/28 05:20:52;;;;;;;5.70;3.97;;;11.10;99.90;;;;;;5004673;28;20250;-87
2021/05/28 05:23:18;;;;;;;6.53;3.53;;;12.80;99.90;;;;;;5005466;28;20204;-87
2021/05/28 05:25:45;;;;;;;6.60;3.63;;;14.60;99.90;;;;;;5015976;28;20222;-86
2021/05/28 05:28:11;;;;;;;10.20;3.63;;;18.00;99.90;;;;;;4995967;28;21201;-86
2021/05/28 05:30:37;;;;;;;4.47;2.63;;;21.40;99.90;;;;;;5021741;28;20230;-87
2021/05/28 05:33:03;;;;;;;8.27;2.70;;;24.10;99.90;;;;;;5007373;28;20223;-88
2021/05/28 05:35:29;;;;;;;3.80;2.30;;;23.50;99.90;;;;;;5025991;28;20274;-88
2021/05/28 05:37:54;;;;;;;3.40;2.30;;;24.30;99.90;;;;;;5028326;28;20308;-87
2021/05/28 05:40:20;;;;;;;5.70;2.50;;;22.90;99.90;;;;;;5006156;28;21091;-90
2021/05/28 05:42:48;;;;;;;3.03;2.27;;;22.60;99.90;;;;;;5010721;28;21666;-87
2021/05/28 05:45:15;;;;;;;8.87;3.03;;;20.90;99.90;;;;;;5004958;28;20250;-88
2021/05/28 05:47:42;;;;;;;2.33;1.90;;;19.60;99.90;;;;;;5001012;28;20179;-87
2021/05/28 05:50:09;;;;;;;4.33;2.10;;;20.30;99.90;;;;;;5029446;28;20197;-86
2021/05/28 05:52:35;;;;;;;2.17;1.90;;;19.60;99.90;;;;;;4988297;28;20233;-88
2021/05/28 05:55:02;;;;;;;3.00;2.13;;;19.70;99.90;;;;;;5009552;28;20764;-89
2021/05/28 05:57:34;;;;;;;3.13;2.00;;;19.30;99.90;;;;;;4992542;28;20219;-87
2021/05/28 06:00:05;;;;;;;2.20;1.93;;;19.00;99.90;;;;;;5016262;28;20255;-86
2021/05/28 06:02:32;;;;;;;4.67;1.97;;;19.30;99.90;;;;;;4985752;28;20212;-86
2021/05/28 06:04:58;;;;;;;4.20;1.97;;;21.00;99.90;;;;;;5000098;28;20231;-89
2021/05/28 06:07:24;;;;;;;2.10;1.80;;;21.90;99.90;;;;;;5022629;28;20219;-88
2021/05/28 06:09:50;;;;;;;4.33;2.47;;;22.40;99.90;;;;;;5012826;28;20229;-87
2021/05/28 06:12:16;;;;;;;3.27;1.97;;;22.10;99.90;;;;;;5005321;28;20235;-88
2021/05/28 06:14:42;;;;;;;2.27;1.50;;;24.10;99.90;;;;;;5015247;28;20185;-89
2021/05/28 06:17:08;;;;;;;2.30;1.83;;;24.50;99.90;;;;;;5019950;28;20552;-88
2021/05/28 06:19:34;;;;;;;5.23;2.00;;;22.90;99.90;;;;;;5014946;28;20223;-88
2021/05/28 06:22:00;;;;;;;3.40;2.57;;;22.50;99.90;;;;;;4998915;28;20274;-87
2021/05/28 06:24:25;;;;;;;7.83;1.83;;;22.40;99.90;;;;;;4982920;28;20826;-85
2021/05/28 06:26:51;;;;;;;4.67;1.93;;;22.30;99.90;;;;;;4994327;28;20282;-87
2021/05/28 06:29:17;;;;;;;3.50;2.70;;;21.20;99.90;;;;;;5012428;28;20190;-88
2021/05/28 06:31:46;;;;;;;2.87;2.13;;;20.10;99.90;;;;;;4995362;28;21004;-89
2021/05/28 06:34:12;;;;;;;4.07;1.67;;;19.60;99.90;;;;;;4985376;28;20310;-89
2021/05/28 06:36:37;;;;;;;2.60;1.57;;;19.70;99.90;;;;;;5012542;28;20235;-89
2021/05/28 06:39:04;;;;;;;3.37;2.20;;;18.00;99.90;;;;;;4997633;28;20331;-88
2021/05/28 06:41:30;;;;;;;4.30;2.57;;;17.30;99.90;;;;;;4999371;28;20310;-88
2021/05/28 06:43:56;;;;;;;5.60;1.90;;;17.30;99.90;;;;;;4999594;28;20639;-86
2021/05/28 06:46:22;;;;;;;3.00;1.60;;;17.50;99.90;;;;;;5004603;28;20568;-89
2021/05/28 06:48:47;;;;;;;3.20;1.80;;;17.60;99.90;;;;;;5021679;28;20218;-87
2021/05/28 06:51:15;;;;;;;1.93;1.57;;;18.20;99.90;;;;;;5011558;28;20241;-88
2021/05/28 06:53:41;;;;;;;3.33;1.83;;;17.50;99.90;;;;;;5013947;28;20214;-88
2021/05/28 06:56:07;;;;;;;3.97;2.10;;;15.80;99.90;;;;;;5012529;28;20505;-89
2021/05/28 06:58:33;;;;;;;5.03;1.60;;;15.80;99.90;;;;;;5010615;28;20230;-88
2021/05/28 07:00:59;;;;;;;1.53;1.43;;;15.80;99.90;;;;;;5029910;28;20321;-89
2021/05/28 07:03:25;;;;;;;3.57;1.80;;;16.60;99.90;;;;;;5026815;28;20222;-87
2021/05/28 07:05:51;;;;;;;2.33;1.60;;;16.80;99.90;;;;;;5027749;28;20966;-88
2021/05/28 07:08:17;;;;;;;5.57;2.00;;;16.40;99.90;;;;;;5029636;28;20179;-88
2021/05/28 07:10:43;;;;;;;3.33;1.47;;;16.80;99.90;;;;;;5028074;28;20222;-88
2021/05/28 07:13:08;;;;;;;5.57;2.00;;;18.40;99.90;;;;;;5008518;28;21185;-88
2021/05/28 07:15:34;;;;;;;4.13;1.50;;;19.80;99.90;;;;;;4999258;28;21266;-88
2021/05/28 07:18:00;;;;;;;2.57;1.87;;;20.00;99.90;;;;;;5010765;28;20644;-88
2021/05/28 07:20:26;;;;;;;4.77;1.57;;;20.50;99.90;;;;;;5013962;28;20250;-88
2021/05/28 07:22:51;;;;;;;2.87;2.03;;;19.60;99.90;;;;;;5002988;28;20598;-89
2021/05/28 07:25:18;;;;;;;3.50;1.60;;;18.90;99.90;;;;;;4989360;28;20234;-89
2021/05/28 07:27:44;;;;;;;2.00;1.63;;;18.90;99.90;;;;;;5015860;28;20225;-88
2021/05/28 07:30:10;;;;;;;13.00;2.30;;;18.70;99.90;;;;;;5020534;28;20219;-89
2021/05/28 07:32:37;;;;;;;1.57;1.20;;;17.80;99.90;;;;;;4976330;28;20704;-87
2021/05/28 07:35:03;;;;;;;2.47;0.83;;;16.20;99.90;;;;;;5024326;28;20238;-87
2021/05/28 07:37:29;;;;;;;1.80;1.40;;;15.80;99.90;;;;;;5004957;28;20234;-89
2021/05/28 07:39:55;;;;;;;1.13;0.90;;;17.10;99.90;;;;;;5000069;28;20227;-89
2021/05/28 07:42:21;;;;;;;1.53;1.30;;;18.70;99.90;;;;;;5006187;28;20748;-91
2021/05/28 07:44:48;;;;;;;1.77;1.30;;;18.70;99.90;;;;;;5019496;28;20191;-90
2021/05/28 07:47:14;;;;;;;2.70;1.60;;;19.80;99.90;;;;;;5011532;28;20241;-90
2021/05/28 07:49:40;;;;;;;1.40;1.30;;;21.00;99.90;;;;;;4991749;28;20223;-90
2021/05/28 07:52:07;;;;;;;1.23;1.13;;;21.20;99.90;;;;;;5006671;28;20700;-91
2021/05/28 07:54:34;;;;;;;1.23;1.17;;;19.60;99.90;;;;;;5011591;28;20344;-89
2021/05/28 07:57:01;;;;;;;3.03;1.23;;;18.70;99.90;;;;;;5008971;28;20223;-91
2021/05/28 07:59:27;;;;;;;2.20;1.50;;;18.80;99.90;;;;;;4992215;28;20183;-91
2021/05/28 08:01:53;;;;;;;2.43;0.97;;;19.40;99.90;;;;;;5000105;28;20220;-90
2021/05/28 08:04:18;;;;;;;1.60;1.50;;;19.00;99.90;;;;;;5001113;28;20222;-90
2021/05/28 08:06:44;;;;;;;1.90;1.43;;;19.50;99.90;;;;;;4991429;28;20221;-90
2021/05/28 08:09:10;;;;;;;1.30;1.20;;;19.60;99.90;;;;;;5004726;28;20223;-92
2021/05/28 08:11:36;;;;;;;2.70;1.50;;;18.70;99.90;;;;;;5009854;28;20492;-90
2021/05/28 08:14:02;;;;;;;2.83;1.30;;;18.40;99.90;;;;;;5008855;28;20219;-91
2021/05/28 08:16:31;;;;;;;1.67;1.23;;;18.50;99.90;;;;;;5008226;28;20282;-89
2021/05/28 08:18:57;;;;;;;3.33;1.37;;;19.60;99.90;;;;;;5009342;28;20235;-89
2021/05/28 08:21:23;;;;;;;1.50;1.20;;;19.20;99.90;;;;;;5005613;28;20246;-89
2021/05/28 08:23:49;;;;;;;3.50;1.17;;;19.10;99.90;;;;;;5024546;28;20658;-91
2021/05/28 08:26:14;;;;;;;2.10;1.93;;;19.20;99.90;;;;;;5023477;28;20191;-89
2021/05/28 08:28:40;;;;;;;3.97;1.70;;;19.00;99.90;;;;;;5014600;28;21012;-89
2021/05/28 08:31:07;;;;;;;3.60;1.80;;;19.50;99.90;;;;;;5010351;28;20304;-89
2021/05/28 08:33:34;;;;;;;1.57;1.47;;;20.30;99.90;;;;;;5015605;28;20306;-89
2021/05/28 08:36:00;;;;;;;1.33;1.23;;;19.60;99.90;;;;;;5010399;28;20232;-89
2021/05/28 08:38:26;;;;;;;1.40;1.30;;;19.70;99.90;;;;;;5012239;28;20653;-88
2021/05/28 08:40:52;;;;;;;1.47;0.87;;;18.40;99.90;;;;;;4993661;28;20246;-88
2021/05/28 08:43:18;;;;;;;1.90;1.13;;;18.40;99.90;;;;;;5022342;28;21057;-90
2021/05/28 08:45:46;;;;;;;1.67;1.50;;;18.50;99.90;;;;;;5021480;28;20749;-88
2021/05/28 08:48:15;;;;;;;2.47;1.53;;;20.40;99.90;;;;;;5005409;28;20216;-89
2021/05/28 08:50:43;;;;;;;2.33;1.43;;;21.30;99.90;;;;;;4996509;28;20187;-88
2021/05/28 08:53:11;;;;;;;1.33;1.20;;;21.40;99.90;;;;;;4994458;28;20196;-89
2021/05/28 08:55:39;;;;;;;3.33;1.33;;;21.60;99.90;;;;;;5009913;28;20227;-89
2021/05/28 08:58:06;;;;;;;1.67;1.50;;;20.10;99.90;;;;;;5026737;28;20207;-87
2021/05/28 09:00:33;;;;;;;2.80;1.40;;;21.80;99.90;;;;;;5020260;28;20371;-85
2021/05/28 09:03:16;;;;;;;1.20;1.10;;;22.30;99.90;;;;;;5027237;28;20285;-85
2021/05/28 09:05:42;;;;;;;2.33;1.50;;;21.60;99.90;;;;;;5029589;28;20651;-86
2021/05/28 09:08:08;;;;;;;1.30;1.20;;;19.90;99.90;;;;;;5011825;28;20524;-85
2021/05/28 09:10:36;;;;;;;5.93;1.27;;;19.70;99.90;;;;;;5025596;28;20229;-86
2021/05/28 09:13:21;;;;;;;2.10;1.43;;;20.80;99.90;;;;;;5009770;28;20227;-86
2021/05/28 09:15:49;;;;;;;1.93;1.10;;;21.60;99.90;;;;;;4998663;28;20756;-83
2021/05/28 09:18:15;;;;;;;1.00;1.00;;;22.10;99.90;;;;;;4999967;28;20223;-86
2021/05/28 09:20:47;;;;;;;2.77;1.70;;;21.00;99.90;;;;;;4997142;28;20188;-85
2021/05/28 09:23:18;;;;;;;2.43;1.80;;;21.00;99.90;;;;;;4993483;28;20192;-84
2021/05/28 09:26:02;;;;;;;1.40;1.30;;;20.40;99.90;;;;;;4995505;28;20257;-85
2021/05/28 09:28:30;;;;;;;1.93;1.80;;;19.70;99.90;;;;;;4989867;28;20228;-85
2021/05/28 09:31:07;;;;;;;2.43;1.60;;;20.60;99.90;;;;;;4988393;28;20220;-84
2021/05/28 09:33:35;;;;;;;2.63;1.40;;;21.00;99.90;;;;;;5013869;28;20410;-85
2021/05/28 09:36:15;;;;;;;3.10;1.57;;;22.20;99.90;;;;;;5010480;28;20326;-85
2021/05/28 09:39:09;;;;;;;1.87;1.73;;;20.80;99.90;;;;;;5025157;28;20201;-85
2021/05/28 09:41:41;;;;;;;2.40;1.77;;;20.30;99.90;;;;;;5027921;28;20737;-85
2021/05/28 09:44:30;;;;;;;1.90;1.80;;;19.40;99.90;;;;;;5021690;28;20219;-85
2021/05/28 09:47:19;;;;;;;1.43;1.30;;;18.70;99.90;;;;;;5011192;28;20233;-85
2021/05/28 09:49:51;;;;;;;1.60;1.50;;;17.60;99.90;;;;;;5027100;28;20251;-84
2021/05/28 09:52:20;;;;;;;2.97;1.57;;;19.00;99.90;;;;;;5010866;28;20223;-84
2021/05/28 09:55:05;;;;;;;1.50;1.40;;;19.90;99.90;;;;;;5010852;28;20254;-84
2021/05/28 09:57:41;;;;;;;2.77;1.73;;;19.40;99.90;;;;;;5009943;28;20215;-85
2021/05/28 10:00:24;;;;;;;1.80;1.70;;;18.40;99.90;;;;;;5010936;28;20206;-84
2021/05/28 10:03:08;;;;;;;2.13;1.57;;;19.40;99.90;;;;;;5024147;28;20203;-85
2021/05/28 10:05:37;;;;;;;3.83;1.63;;;19.30;99.90;;;;;;5025313;28;20214;-85
2021/05/28 10:08:06;;;;;;;2.53;1.83;;;19.60;99.90;;;;;;5028906;28;20225;-84
2021/05/28 10:10:31;;;;;;;2.50;1.60;;;19.70;99.90;;;;;;5007487;28;20225;-85
2021/05/28 10:12:59;;;;;;;3.03;1.97;;;19.30;99.90;;;;;;4989482;28;20219;-84
2021/05/28 10:15:24;;;;;;;4.20;1.83;;;19.10;99.90;;;;;;4995865;28;20294;-85
2021/05/28 10:17:50;;;;;;;3.33;1.47;;;18.90;99.90;;;;;;5010953;28;20361;-84
2021/05/28 10:20:17;;;;;;;1.40;1.30;;;19.40;99.90;;;;;;5011246;28;20191;-86
2021/05/28 10:22:45;;;;;;;4.77;2.27;;;20.20;99.90;;;;;;5025071;28;20235;-84
2021/05/28 10:25:11;;;;;;;7.23;2.37;;;21.70;99.90;;;;;;5013327;28;20223;-85
2021/05/28 10:27:36;;;;;;;2.30;2.03;;;21.30;99.90;;;;;;5012355;28;20239;-85
2021/05/28 10:30:13;;;;;;;5.97;1.90;;;21.40;99.90;;;;;;5008695;28;21161;-85
2021/05/28 10:32:38;;;;;;;1.80;1.70;;;20.80;99.90;;;;;;5024139;28;20202;-87
2021/05/28 10:35:12;;;;;;;3.23;1.90;;;21.90;99.90;;;;;;5017382;28;20702;-85
2021/05/28 10:37:41;;;;;;;3.27;2.20;;;21.30;99.90;;;;;;5009088;28;20254;-85
2021/05/28 10:40:27;;;;;;;2.93;2.10;;;20.10;99.90;;;;;;4998603;28;20688;-85
2021/05/28 10:43:21;;;;;;;2.40;1.90;;;20.60;99.90;;;;;;5014590;28;20231;-84
2021/05/28 10:46:01;;;;;;;4.03;1.77;;;21.30;99.90;;;;;;5006439;28;20222;-85
2021/05/28 10:48:43;;;;;;;4.27;1.53;;;20.20;99.90;;;;;;5007214;28;20251;-85
2021/05/28 10:51:16;;;;;;;2.93;1.67;;;20.80;99.90;;;;;;4998730;28;20778;-87
2021/05/28 10:54:02;;;;;;;1.87;1.77;;;21.80;99.90;;;;;;4991321;28;20208;-85
2021/05/28 10:56:42;;;;;;;4.03;1.70;;;22.90;99.90;;;;;;5013825;28;20182;-85
2021/05/28 10:59:15;;;;;;;3.97;1.57;;;21.90;99.90;;;;;;4992241;28;20752;-84
2021/05/28 11:01:57;;;;;;;2.70;1.80;;;22.20;99.90;;;;;;4990127;28;20463;-85
2021/05/28 11:04:49;;;;;;;3.50;1.73;;;21.50;99.90;;;;;;5018913;28;20214;-85
2021/05/28 11:07:16;;;;;;;1.77;1.67;;;21.90;99.90;;;;;;5004282;28;20265;-83
2021/05/28 11:09:45;;;;;;;2.27;2.07;;;21.70;99.90;;;;;;5016142;28;20876;-86
2021/05/28 11:12:12;;;;;;;5.27;2.00;;;21.40;99.90;;;;;;5027761;28;20226;-85
2021/05/28 11:14:58;;;;;;;3.33;2.10;;;20.80;99.90;;;;;;5007266;28;20189;-84
2021/05/28 11:17:23;;;;;;;3.63;1.70;;;20.20;99.90;;;;;;4998290;28;20219;-85
2021/05/28 11:19:52;;;;;;;3.10;2.10;;;19.80;99.90;;;;;;5024657;28;20615;-85
2021/05/28 11:22:29;;;;;;;2.23;2.00;;;19.70;99.90;;;;;;4995149;28;20235;-84
2021/05/28 11:25:15;;;;;;;1.97;1.60;;;20.00;99.90;;;;;;4988985;28;20223;-87
2021/05/28 11:27:43;;;;;;;2.00;1.80;;;19.80;99.90;;;;;;4999196;28;20214;-84
2021/05/28 11:30:09;;;;;;;2.90;1.83;;;19.70;99.90;;;;;;5007674;28;20219;-87
2021/05/28 11:32:45;;;;;;;1.97;1.87;;;20.10;99.90;;;;;;5011243;28;20198;-85
2021/05/28 11:35:28;;;;;;;3.73;1.90;;;20.40;99.90;;;;;;5017929;28;20297;-86
2021/05/28 11:38:05;;;;;;;3.33;2.33;;;19.60;99.90;;;;;;4999118;28;20276;-85
2021/05/28 11:40:37;;;;;;;3.70;2.27;;;19.30;99.90;;;;;;5019448;28;20260;-84
2021/05/28 11:43:19;;;;;;;2.20;2.00;;;19.50;99.90;;;;;;4998501;28;20228;-84
2021/05/28 11:45:46;;;;;;;2.13;2.00;;;18.90;99.90;;;;;;4999192;28;20216;-85
2021/05/28 11:48:14;;;;;;;2.73;1.70;;;18.70;99.90;;;;;;5003040;28;20462;-85
2021/05/28 11:50:46;;;;;;;2.43;1.70;;;18.50;99.90;;;;;;5008615;28;20188;-85
2021/05/28 11:53:12;;;;;;;1.57;1.47;;;18.10;99.90;;;;;;4999731;28;20566;-85
2021/05/28 11:55:57;;;;;;;1.93;1.70;;;17.90;99.90;;;;;;5021972;28;20677;-84
2021/05/28 11:58:34;;;;;;;3.73;1.90;;;18.00;99.90;;;;;;4983435;28;20227;-86
2021/05/28 12:01:02;;;;;;;2.23;1.50;;;18.50;99.90;;;;;;4992651;28;20258;-85
2021/05/28 12:03:28;;;;;;;1.63;1.53;;;18.40;99.90;;;;;;4987395;28;20238;-85
2021/05/28 12:05:55;;;;;;;2.40;1.30;;;18.90;99.90;;;;;;5021415;28;20193;-84
2021/05/28 12:08:29;;;;;;;1.83;1.57;;;19.20;99.90;;;;;;4997100;28;20270;-85
2021/05/28 12:10:57;;;;;;;2.73;2.53;;;19.10;99.90;;;;;;5004216;28;20221;-85
2021/05/28 12:13:35;;;;;;;2.00;1.77;;;18.20;99.90;;;;;;4986960;28;20279;-83
2021/05/28 12:16:05;;;;;;;1.63;1.53;;;17.50;99.90;;;;;;5015541;28;20564;-86
2021/05/28 12:18:34;;;;;;;1.80;1.70;;;17.20;99.90;;;;;;5007094;28;20222;-87
2021/05/28 12:21:18;;;;;;;1.97;1.70;;;17.00;99.90;;;;;;5024740;28;20235;-86
2021/05/28 12:23:46;;;;;;;2.87;1.80;;;16.80;99.90;;;;;;5009665;28;21168;-87
2021/05/28 12:26:19;;;;;;;5.13;1.10;;;16.70;99.90;;;;;;5023877;28;20191;-86
2021/05/28 12:28:48;;;;;;;2.57;1.33;;;16.50;99.90;;;;;;5007926;28;20578;-86
2021/05/28 12:31:15;;;;;;;1.90;1.40;;;16.60;99.90;;;;;;4998952;28;20521;-88
2021/05/28 12:33:50;;;;;;;1.30;1.20;;;16.60;99.90;;;;;;5003834;28;20223;-86
2021/05/28 12:36:16;;;;;;;0.90;0.80;;;16.90;99.90;;;;;;5003692;28;20217;-86
2021/05/28 12:38:47;;;;;;;11.30;1.77;;;17.00;99.90;;;;;;5018864;28;20196;-87
2021/05/28 12:41:26;;;;;;;2.83;1.30;;;16.90;99.90;;;;;;5014614;28;20219;-86
2021/05/28 12:43:54;;;;;;;1.83;1.67;;;16.70;99.90;;;;;;5000649;28;20215;-86
2021/05/28 12:46:22;;;;;;;2.50;1.20;;;17.00;99.90;;;;;;4993148;28;20276;-87
2021/05/28 12:48:54;;;;;;;3.27;1.87;;;17.00;99.90;;;;;;4994619;28;20223;-86
2021/05/28 12:51:29;;;;;;;3.50;1.50;;;16.90;99.90;;;;;;5008710;28;20278;-86
2021/05/28 12:53:55;;;;;;;1.37;1.27;;;16.70;99.90;;;;;;5001553;28;20275;-86
2021/05/28 12:56:27;;;;;;;1.30;0.97;;;17.00;99.90;;;;;;4996297;28;20195;-86
2021/05/28 12:58:54;;;;;;;3.17;1.47;;;16.70;99.90;;;;;;4999405;28;20216;-86